Time;durP1;ratioP1;P1;durP2;ratioP2;P2;SDS_P1;SDS_P2;PMS_P1;PMS_P2;Temp;Humidity;BMP_temperature;BMP_pressure;BME280_temperature;BME280_humidity;BME280_pressure;Samples;Min_cycle;Max_cycle;Signal;HPM_P1;HPM_P2
2023/05/27 00:02:23;;;;;;;;;;;;;;;16.92;100.00;99827.97;5014424;28;20415;-74
2023/05/27 00:04:48;;;;;;;;;;;;;;;16.96;100.00;99839.97;5006649;28;19918;-74
2023/05/27 00:07:14;;;;;;;;;;;;;;;16.99;100.00;99837.75;5013032;28;20312;-75
2023/05/27 00:09:39;;;;;;;;;;;;;;;17.05;100.00;99836.22;5008408;28;19944;-74
2023/05/27 00:12:04;;;;;;;;;;;;;;;17.12;100.00;99837.16;5008195;28;19924;-74
2023/05/27 00:14:30;;;;;;;;;;;;;;;17.11;100.00;99836.34;5004002;28;19924;-75
2023/05/27 00:16:56;;;;;;;;;;;;;;;17.08;100.00;99835.88;5012029;28;19917;-75
2023/05/27 00:19:21;;;;;;;;;;;;;;;17.09;100.00;99825.00;5005381;28;19964;-75
2023/05/27 00:21:47;;;;;;;;;;;;;;;17.05;100.00;99830.88;5011277;28;19920;-74
2023/05/27 00:24:12;;;;;;;;;;;;;;;17.07;100.00;99829.72;5006974;28;19918;-75
2023/05/27 00:26:39;;;;;;;;;;;;;;;17.07;100.00;99829.72;5006534;28;19925;-75
2023/05/27 00:29:04;;;;;;;;;;;;;;;17.04;100.00;99837.22;4999478;28;19921;-74
2023/05/27 00:31:30;;;;;;;;;;;;;;;16.95;100.00;99835.63;4990839;28;19948;-74
2023/05/27 00:33:55;;;;;;;;;;;;;;;16.96;100.00;99837.28;5011360;28;20285;-74
2023/05/27 00:36:20;;;;;;;;;;;;;;;16.97;100.00;99836.25;5012124;28;20269;-74
2023/05/27 00:38:46;;;;;;;;;;;;;;;17.00;100.00;99843.91;5006460;28;20126;-74
2023/05/27 00:41:12;;;;;;;;;;;;;;;17.03;100.00;99832.88;5011372;28;19939;-74
2023/05/27 00:43:38;;;;;;;;;;;;;;;16.81;100.00;99836.38;5007442;28;19992;-73
2023/05/27 00:46:03;;;;;;;;;;;;;;;16.59;100.00;99836.16;5009544;28;20373;-73
2023/05/27 00:48:29;;;;;;;;;;;;;;;16.56;100.00;99841.78;5008202;28;19959;-73
2023/05/27 00:50:55;;;;;;;;;;;;;;;16.56;100.00;99844.47;4994846;28;19945;-74
2023/05/27 00:53:21;;;;;;;;;;;;;;;16.58;100.00;99839.78;4990958;28;20000;-74
2023/05/27 00:55:46;;;;;;;;;;;;;;;16.54;100.00;99843.00;5008597;28;19929;-74
2023/05/27 00:58:12;;;;;;;;;;;;;;;16.53;100.00;99842.16;5001352;28;20371;-74
2023/05/27 01:00:38;;;;;;;;;;;;;;;16.44;100.00;99842.34;5008349;28;19934;-74
2023/05/27 01:03:06;;;;;;;;;;;;;;;16.41;100.00;99837.38;5006777;28;20352;-74
2023/05/27 01:05:32;;;;;;;;;;;;;;;16.25;100.00;99839.13;5009518;28;19928;-74
2023/05/27 01:08:16;;;;;;;;;;;;;;;16.04;100.00;99836.19;5006266;28;20448;-74
2023/05/27 01:10:52;;;;;;;;;;;;;;;15.98;100.00;99842.19;5012924;28;19925;-74
2023/05/27 01:13:38;;;;;;;;;;;;;;;16.05;100.00;99845.00;5007053;28;19921;-74
2023/05/27 01:16:09;;;;;;;;;;;;;;;16.15;100.00;99837.63;5002657;28;20669;-72
2023/05/27 01:18:35;;;;;;;;;;;;;;;16.20;100.00;99835.31;5009972;28;19960;-74
2023/05/27 01:21:05;;;;;;;;;;;;;;;16.26;100.00;99835.44;5003758;28;19968;-74
2023/05/27 01:23:31;;;;;;;;;;;;;;;16.30;100.00;99835.94;5010054;28;19917;-76
2023/05/27 01:25:56;;;;;;;;;;;;;;;16.27;100.00;99836.25;5006939;28;19921;-75
2023/05/27 01:28:22;;;;;;;;;;;;;;;16.20;100.00;99841.44;5006507;28;19971;-76
2023/05/27 01:30:48;;;;;;;;;;;;;;;16.20;100.00;99841.44;5006147;28;19964;-76
2023/05/27 01:33:17;;;;;;;;;;;;;;;16.12;100.00;99843.31;5007986;28;19924;-76
2023/05/27 01:35:45;;;;;;;;;;;;;;;16.04;100.00;99846.81;5008060;28;19917;-73
2023/05/27 01:38:14;;;;;;;;;;;;;;;16.06;100.00;99838.69;5003895;28;19924;-73
2023/05/27 01:40:40;;;;;;;;;;;;;;;16.11;100.00;99846.97;5004644;28;19913;-73
2023/05/27 01:43:06;;;;;;;;;;;;;;;16.17;100.00;99841.81;5008919;28;19917;-73
2023/05/27 01:45:32;;;;;;;;;;;;;;;16.23;100.00;99849.09;5003491;28;19925;-73
2023/05/27 01:47:58;;;;;;;;;;;;;;;16.30;100.00;99842.09;5004528;28;19960;-73
2023/05/27 01:50:23;;;;;;;;;;;;;;;16.31;100.00;99845.59;5009003;28;19922;-74
2023/05/27 01:52:48;;;;;;;;;;;;;;;16.32;100.00;99844.56;4994033;28;19921;-74
2023/05/27 01:55:14;;;;;;;;;;;;;;;16.32;100.00;99836.56;5003773;28;20374;-75
2023/05/27 01:57:39;;;;;;;;;;;;;;;16.22;100.00;99843.94;5014029;28;20429;-75
2023/05/27 02:00:09;;;;;;;;;;;;;;;16.25;100.00;99839.13;5016944;28;20127;-74
2023/05/27 02:02:42;;;;;;;;;;;;;;;16.22;100.00;99841.28;5006467;28;19932;-74
2023/05/27 02:05:07;;;;;;;;;;;;;;;16.26;100.00;99851.41;4987147;28;19914;-74
2023/05/27 02:07:32;;;;;;;;;;;;;;;16.27;100.00;99844.25;5005677;28;19940;-75
2023/05/27 02:09:58;;;;;;;;;;;;;;;16.32;100.00;99841.91;5006861;28;19963;-74
2023/05/27 02:12:23;;;;;;;;;;;;;;;16.33;100.00;99847.06;4991091;28;19921;-75
2023/05/27 02:14:49;;;;;;;;;;;;;;;16.30;100.00;99851.91;5003265;28;19929;-75
2023/05/27 02:17:14;;;;;;;;;;;;;;;16.26;100.00;99846.09;5006854;28;19917;-75
2023/05/27 02:19:40;;;;;;;;;;;;;;;16.25;100.00;99841.78;5001961;28;19925;-74
2023/05/27 02:22:09;;;;;;;;;;;;;;;16.20;100.00;99848.63;5012165;28;19921;-74
2023/05/27 02:24:35;;;;;;;;;;;;;;;16.22;100.00;99846.59;5003176;28;19924;-74
2023/05/27 02:27:01;;;;;;;;;;;;;;;16.23;100.00;99848.28;5012702;28;19924;-74
2023/05/27 02:29:26;;;;;;;;;;;;;;;16.20;100.00;99845.97;5012580;28;19948;-74
2023/05/27 02:31:51;;;;;;;;;;;;;;;16.20;100.00;99856.63;4996095;28;20381;-74
2023/05/27 02:34:17;;;;;;;;;;;;;;;16.15;100.00;99853.59;5007726;28;19921;-75
2023/05/27 02:36:42;;;;;;;;;;;;;;;16.13;100.00;99852.97;5017179;28;19993;-73
2023/05/27 02:39:08;;;;;;;;;;;;;;;16.09;100.00;99859.63;4990868;28;19917;-75
2023/05/27 02:41:34;;;;;;;;;;;;;;;16.04;100.00;99853.97;5014971;28;19925;-75
2023/05/27 02:43:59;;;;;;;;;;;;;;;16.01;100.00;99859.66;5007032;28;19984;-74
2023/05/27 02:46:25;;;;;;;;;;;;;;;16.02;100.00;99858.66;5008061;28;19917;-75
2023/05/27 02:48:50;;;;;;;;;;;;;;;16.05;100.00;99864.47;5003697;28;20012;-74
2023/05/27 02:51:15;;;;;;;;;;;;;;;16.04;100.00;99865.47;5014270;28;19923;-75
2023/05/27 02:53:41;;;;;;;;;;;;;;;16.04;100.00;99862.78;5007501;28;19996;-75
2023/05/27 02:56:06;;;;;;;;;;;;;;;16.07;100.00;99872.28;4998834;28;19952;-74
2023/05/27 02:58:31;;;;;;;;;;;;;;;16.07;100.00;99865.13;5007855;28;20291;-75
2023/05/27 03:00:57;;;;;;;;;;;;;;;16.09;100.00;99864.94;5014191;28;20262;-75
2023/05/27 03:03:23;;;;;;;;;;;;;;;16.13;100.00;99855.63;5008492;28;20000;-74
2023/05/27 03:05:49;;;;;;;;;;;;;;;16.15;100.00;99853.59;5009691;28;20353;-74
2023/05/27 03:08:14;;;;;;;;;;;;;;;16.14;100.00;99863.44;5021351;28;19964;-74
2023/05/27 03:10:39;;;;;;;;;;;;;;;16.10;100.00;99869.28;5015003;28;20004;-73
2023/05/27 03:13:05;;;;;;;;;;;;;;;16.12;100.00;99867.28;5005883;28;19918;-73
2023/05/27 03:15:31;;;;;;;;;;;;;;;16.11;100.00;99868.28;5003790;28;19925;-73
2023/05/27 03:17:56;;;;;;;;;;;;;;;15.91;100.00;99862.50;4999448;28;20259;-74
2023/05/27 03:20:22;;;;;;;;;;;;;;;15.84;100.00;99857.03;4987104;28;19918;-73
2023/05/27 03:22:47;;;;;;;;;;;;;;;15.68;100.00;99862.34;4988848;28;19918;-73
2023/05/27 03:25:13;;;;;;;;;;;;;;;15.51;100.00;99863.34;4994632;28;19957;-73
2023/05/27 03:27:40;;;;;;;;;;;;;;;15.46;100.00;99874.47;4986157;28;19980;-74
2023/05/27 03:30:08;;;;;;;;;;;;;;;15.50;100.00;99875.81;4993872;28;19918;-76
2023/05/27 03:32:39;;;;;;;;;;;;;;;15.54;100.00;99881.66;4989413;28;20370;-73
2023/05/27 03:35:05;;;;;;;;;;;;;;;15.54;100.00;99879.84;4988288;28;20008;-76
2023/05/27 03:37:32;;;;;;;;;;;;;;;15.45;100.00;99882.63;4997583;28;19925;-77
2023/05/27 03:40:03;;;;;;;;;;;;;;;15.40;100.00;99874.31;5002577;28;19913;-75
2023/05/27 03:42:29;;;;;;;;;;;;;;;15.39;100.00;99885.94;5019001;28;20232;-75
2023/05/27 03:44:54;;;;;;;;;;;;;;;15.39;100.00;99883.28;4991726;28;19918;-75
2023/05/27 03:47:21;;;;;;;;;;;;;;;15.30;100.00;99871.00;4998869;28;19980;-74
2023/05/27 03:49:48;;;;;;;;;;;;;;;15.24;100.00;99879.63;5016937;28;19925;-74
2023/05/27 03:52:13;;;;;;;;;;;;;;;15.19;100.00;99888.09;4993159;28;19937;-72
2023/05/27 03:54:39;;;;;;;;;;;;;;;15.28;100.00;99891.59;4985474;28;19953;-73
2023/05/27 03:57:04;;;;;;;;;;;;;;;15.34;100.00;99886.44;4988255;28;19929;-73
2023/05/27 03:59:29;;;;;;;;;;;;;;;15.26;100.00;99881.09;4988462;28;19928;-75
2023/05/27 04:01:55;;;;;;;;;;;;;;;15.25;100.00;99891.94;4998797;28;19918;-74
2023/05/27 04:04:21;;;;;;;;;;;;;;;15.21;100.00;99901.22;4987652;28;19922;-74
2023/05/27 04:06:46;;;;;;;;;;;;;;;15.26;100.00;99914.84;4986623;28;19929;-74
2023/05/27 04:09:14;;;;;;;;;;;;;;;15.21;100.00;99903.88;4994506;28;19929;-75
2023/05/27 04:11:40;;;;;;;;;;;;;;;15.20;100.00;99899.56;5004085;28;19918;-74
2023/05/27 04:14:06;;;;;;;;;;;;;;;15.06;100.00;99899.22;5020887;28;19918;-75
2023/05/27 04:16:33;;;;;;;;;;;;;;;15.08;100.00;99907.81;5002690;28;20462;-75
2023/05/27 04:18:59;;;;;;;;;;;;;;;15.10;100.00;99913.81;5009393;28;20285;-74
2023/05/27 04:21:25;;;;;;;;;;;;;;;15.12;100.00;99925.13;5003508;28;19917;-74
2023/05/27 04:23:51;;;;;;;;;;;;;;;15.16;100.00;99926.47;5023303;28;19972;-74
2023/05/27 04:26:18;;;;;;;;;;;;;;;15.23;100.00;99928.47;5002864;28;19921;-74
2023/05/27 04:28:48;;;;;;;;;;;;;;;15.29;100.00;99927.81;4993862;28;19924;-75
2023/05/27 04:31:15;;;;;;;;;;;;;;;15.32;100.00;99922.16;5006556;28;19918;-74
2023/05/27 04:33:49;;;;;;;;;;;;;;;15.28;100.00;99923.50;5016661;28;20007;-74
2023/05/27 04:36:16;;;;;;;;;;;;;;;15.22;100.00;99929.47;5009083;28;19917;-74
2023/05/27 04:38:55;;;;;;;;;;;;;;;15.26;100.00;99923.66;5005760;28;19917;-74
2023/05/27 04:41:21;;;;;;;;;;;;;;;15.23;100.00;99931.13;5004386;28;19924;-72
2023/05/27 04:43:47;;;;;;;;;;;;;;;15.25;100.00;99934.47;5007176;28;19964;-74
2023/05/27 04:46:17;;;;;;;;;;;;;;;15.28;100.00;99939.44;4989400;28;19918;-75
2023/05/27 04:48:44;;;;;;;;;;;;;;;15.29;100.00;99930.47;5008317;28;19924;-74
2023/05/27 04:51:10;;;;;;;;;;;;;;;15.34;100.00;99939.63;4994389;28;19939;-75
2023/05/27 04:53:35;;;;;;;;;;;;;;;15.21;100.00;99935.75;4999858;28;20346;-74
2023/05/27 04:56:00;;;;;;;;;;;;;;;15.15;100.00;99935.44;5005424;28;19984;-74
2023/05/27 04:58:27;;;;;;;;;;;;;;;15.22;100.00;99940.09;5008162;28;20333;-73
2023/05/27 05:00:53;;;;;;;;;;;;;;;15.30;100.00;99948.09;5005712;28;19917;-75
2023/05/27 05:03:36;;;;;;;;;;;;;;;15.33;100.00;99943.28;4988796;28;19924;-74
2023/05/27 05:06:02;;;;;;;;;;;;;;;15.36;100.00;99947.44;5006129;28;19917;-74
2023/05/27 05:08:28;;;;;;;;;;;;;;;15.48;100.00;99946.13;4990046;28;20259;-74
2023/05/27 05:10:53;;;;;;;;;;;;;;;15.58;100.00;99954.81;5022678;28;19964;-75
2023/05/27 05:13:19;;;;;;;;;;;;;;;15.66;100.00;99948.66;5005331;28;19917;-75
2023/05/27 05:15:44;;;;;;;;;;;;;;;15.70;100.00;99945.50;5022428;28;20388;-75
2023/05/27 05:18:11;;;;;;;;;;;;;;;15.78;100.00;99952.66;4998426;28;20278;-74
2023/05/27 05:20:36;;;;;;;;;;;;;;;15.77;100.00;99959.81;5022673;28;19949;-73
2023/05/27 05:23:02;;;;;;;;;;;;;;;15.76;100.00;99955.50;4988819;28;19969;-74
2023/05/27 05:25:30;;;;;;;;;;;;;;;15.77;100.00;99959.81;5021593;28;19967;-74
2023/05/27 05:27:55;;;;;;;;;;;;;;;15.77;100.00;99962.47;4991752;28;19925;-74
2023/05/27 05:30:21;;;;;;;;;;;;;;;15.73;100.00;99966.44;5010786;28;19918;-74
2023/05/27 05:32:46;;;;;;;;;;;;;;;15.66;100.00;99968.13;5003659;28;19922;-75
2023/05/27 05:35:13;;;;;;;;;;;;;;;15.75;100.00;99968.94;5001900;28;19925;-76
2023/05/27 05:37:43;;;;;;;;;;;;;;;15.80;100.00;99978.09;5005551;28;19917;-75
2023/05/27 05:40:10;;;;;;;;;;;;;;;15.93;100.00;99973.13;4971038;28;20223;-74
2023/05/27 05:42:42;;;;;;;;;;;;;;;16.05;100.00;99978.94;5010067;28;19925;-75
2023/05/27 05:45:08;;;;;;;;;;;;;;;16.21;100.00;99980.72;4988964;28;20580;-74
2023/05/27 05:47:34;;;;;;;;;;;;;;;16.26;100.00;99978.38;5004016;28;19918;-75
2023/05/27 05:50:07;;;;;;;;;;;;;;;16.34;100.00;99976.56;4990455;28;19921;-75
2023/05/27 05:52:35;;;;;;;;;;;;;;;16.46;100.00;99979.69;4993515;28;20020;-75
2023/05/27 05:55:00;;;;;;;;;;;;;;;16.55;100.00;99981.31;4991913;28;20349;-75
2023/05/27 05:57:26;;;;;;;;;;;;;;;16.64;100.00;99983.00;5009625;28;20268;-75
2023/05/27 05:59:51;;;;;;;;;;;;;;;16.69;100.00;99980.66;5008405;28;20282;-75
2023/05/27 06:02:17;;;;;;;;;;;;;;;16.83;100.00;99987.13;5014941;28;20000;-74
2023/05/27 06:04:43;;;;;;;;;;;;;;;16.97;100.00;99988.22;5009819;28;20024;-75
2023/05/27 06:07:08;;;;;;;;;;;;;;;17.07;100.00;99986.19;5006869;28;19959;-74
2023/05/27 06:09:41;;;;;;;;;;;;;;;17.19;100.00;99982.13;4999163;28;20342;-75
2023/05/27 06:12:15;;;;;;;;;;;;;;;17.32;100.00;99989.56;5006565;28;20398;-75
2023/05/27 06:14:43;;;;;;;;;;;;;;;17.40;100.00;99982.31;4989585;28;19917;-74
2023/05/27 06:17:13;;;;;;;;;;;;;;;17.52;100.00;99986.25;5008213;28;19917;-74
2023/05/27 06:19:39;;;;;;;;;;;;;;;17.68;100.00;99987.16;5007396;28;19917;-74
2023/05/27 06:22:05;;;;;;;;;;;;;;;17.78;100.00;99985.94;5009596;28;20393;-74
2023/05/27 06:24:39;;;;;;;;;;;;;;;17.90;100.00;99986.34;5012219;28;20022;-75
2023/05/27 06:27:28;;;;;;;;;;;;;;;17.99;100.00;99982.59;5005296;28;19925;-75
2023/05/27 06:29:53;;;;;;;;;;;;;;;18.09;100.00;99985.84;5016596;28;19928;-75
2023/05/27 06:32:29;;;;;;;;;;;;;;;18.20;100.00;99997.94;4991484;28;19985;-75
2023/05/27 06:34:55;;;;;;;;;;;;;;;18.28;100.00;99990.69;4992383;28;19928;-75
2023/05/27 06:37:20;;;;;;;;;;;;;;;18.37;100.00;99989.59;5008638;28;19952;-74
2023/05/27 06:39:46;;;;;;;;;;;;;;;18.38;100.00;99996.56;5007039;28;19918;-74
2023/05/27 06:42:11;;;;;;;;;;;;;;;18.49;100.00;99999.84;5001968;28;19949;-75
2023/05/27 06:44:46;;;;;;;;;;;;;;;18.60;100.00;99999.41;4999252;28;19996;-75
2023/05/27 06:47:16;;;;;;;;;;;;;;;18.77;100.00;100000.88;4987088;28;19917;-75
2023/05/27 06:49:42;;;;;;;;;;;;;;;18.92;100.00;99999.03;4995371;28;19991;-76
2023/05/27 06:52:07;;;;;;;;;;;;;;;19.09;100.00;99989.78;5006761;28;19925;-75
2023/05/27 06:54:44;;;;;;;;;;;;;;;19.24;100.00;99997.78;4985827;28;19963;-75
2023/05/27 06:57:41;;;;;;;;;;;;;;;19.41;100.00;100003.75;4968572;28;19924;-75
2023/05/27 07:00:15;;;;;;;;;;;;;;;19.45;100.00;99995.19;4997085;28;19918;-75
2023/05/27 07:02:53;;;;;;;;;;;;;;;19.59;100.00;100001.50;5007469;28;20289;-75
2023/05/27 07:05:18;;;;;;;;;;;;;;;19.68;100.00;100000.34;5007985;28;19917;-75
2023/05/27 07:07:44;;;;;;;;;;;;;;;19.77;100.00;100004.59;5012550;28;20374;-75
2023/05/27 07:10:09;;;;;;;;;;;;;;;19.83;100.00;100003.81;5009259;28;19952;-76
2023/05/27 07:12:35;;;;;;;;;;;;;;;19.84;100.00;100000.13;5007405;28;19917;-75
2023/05/27 07:15:16;;;;;;;;;;;;;;;19.95;100.00;100006.81;4997900;28;20044;-75
2023/05/27 07:17:42;;;;;;;;;;;;;;;19.96;100.00;100006.63;5008307;28;20413;-75
2023/05/27 07:20:08;;;;;;;;;;;;;;;20.01;100.00;100017.59;4991661;28;19917;-74
2023/05/27 07:22:34;;;;;;;;;;;;;;;20.04;100.00;100016.38;4993225;28;20285;-75
2023/05/27 07:24:59;;;;;;;;;;;;;;;20.12;100.00;100018.09;4993606;28;19921;-75
2023/05/27 07:27:28;;;;;;;;;;;;;;;20.14;100.00;100010.69;5002833;28;19925;-74
2023/05/27 07:29:57;;;;;;;;;;;;;;;20.23;100.00;100014.88;4995749;28;20309;-73
2023/05/27 07:32:33;;;;;;;;;;;;;;;20.13;100.00;100009.03;4986275;28;20476;-76
2023/05/27 07:34:58;;;;;;;;;;;;;;;20.14;100.00;100011.53;5006560;28;20076;-75
2023/05/27 07:37:26;;;;;;;;;;;;;;;20.14;100.00;100016.06;5006688;28;20298;-76
2023/05/27 07:39:51;;;;;;;;;;;;;;;20.23;100.00;100004.16;5009686;28;19917;-75
2023/05/27 07:42:17;;;;;;;;;;;;;;;20.33;100.00;100004.69;5008019;28;19921;-75
2023/05/27 07:44:42;;;;;;;;;;;;;;;20.46;100.00;100010.13;5005670;28;19921;-75
2023/05/27 07:47:08;;;;;;;;;;;;;;;20.55;100.00;100010.84;5004496;28;19925;-75
2023/05/27 07:49:33;;;;;;;;;;;;;;;20.65;100.00;100019.34;5009143;28;19940;-77
2023/05/27 07:52:20;;;;;;;;;;;;;;;20.72;100.00;100020.22;4978852;28;19972;-74
2023/05/27 07:54:47;;;;;;;;;;;;;;;20.79;100.00;100015.72;4994640;28;20293;-75
2023/05/27 07:57:16;;;;;;;;;;;;;;;20.94;100.00;100007.53;5005540;28;19917;-76
2023/05/27 07:59:41;;;;;;;;;;;;;;;21.07;100.00;100011.13;5019130;28;20393;-75
2023/05/27 08:02:07;;;;;;;;;;;;;;;21.13;100.00;100006.81;4973118;28;19972;-75
2023/05/27 08:04:32;;;;;;;;;;;;;;;21.22;100.00;100008.31;4975174;28;20059;-75
2023/05/27 08:07:18;;;;;;;;;;;;;;;21.32;100.00;100000.75;5009250;28;19960;-75
2023/05/27 08:09:58;;;;;;;;;;;;;;;21.34;100.00;100004.03;5006519;28;19989;-75
2023/05/27 08:12:44;;;;;;;;;;;;;;;21.37;100.00;100003.66;4992254;28;19925;-76
2023/05/27 08:15:22;;;;;;;;;;;;;;;21.41;100.00;100002.19;4987442;28;19983;-75
2023/05/27 08:18:00;;;;;;;;;;;;;;;21.46;100.00;100007.78;5006806;28;19925;-75
2023/05/27 08:20:51;;;;;;;;;;;;;;;21.47;100.00;100006.78;5011560;28;19924;-75
2023/05/27 08:23:46;;;;;;;;;;;;;;;21.47;100.00;100004.09;4991482;28;19917;-76
2023/05/27 08:26:38;;;;;;;;;;;;;;;21.54;100.00;100004.94;5007693;28;19917;-75
2023/05/27 08:29:18;;;;;;;;;;;;;;;21.44;100.00;100001.78;5017386;28;19990;-76
2023/05/27 08:31:56;;;;;;;;;;;;;;;21.32;100.00;99998.06;4990889;28;20393;-74
2023/05/27 08:34:22;;;;;;;;;;;;;;;21.36;100.00;100002.00;5007650;28;19917;-76
2023/05/27 08:36:48;;;;;;;;;;;;;;;21.42;100.00;100003.88;5008760;28;20432;-75
2023/05/27 08:39:13;;;;;;;;;;;;;;;21.49;100.00;99993.16;5019252;28;19917;-74
2023/05/27 08:41:45;;;;;;;;;;;;;;;21.58;100.00;99991.91;4990179;28;20385;-76
2023/05/27 08:44:11;;;;;;;;;;;;;;;21.57;100.00;99985.72;5005393;28;19933;-75
2023/05/27 08:46:36;;;;;;;;;;;;;;;21.61;100.00;99992.34;4989980;28;19917;-74
2023/05/27 08:49:02;;;;;;;;;;;;;;;21.76;100.00;99991.34;5012288;28;20004;-74
2023/05/27 08:51:28;;;;;;;;;;;;;;;21.88;100.00;99984.31;4991546;28;20056;-74
2023/05/27 08:53:54;;;;;;;;;;;;;;;21.97;100.00;99983.94;4998314;28;19921;-75
2023/05/27 08:56:23;;;;;;;;;;;;;;;22.13;100.00;99982.72;5010225;28;19917;-75
2023/05/27 08:58:51;;;;;;;;;;;;;;;22.23;100.00;99983.13;4993253;28;19968;-74
2023/05/27 09:01:17;;;;;;;;;;;;;;;22.25;100.00;99974.84;4999870;28;19918;-74
2023/05/27 09:03:43;;;;;;;;;;;;;;;22.22;100.00;99976.09;5024919;28;19917;-74
2023/05/27 09:06:09;;;;;;;;;;;;;;;22.30;100.00;99983.94;5008543;28;20354;-74
2023/05/27 09:08:34;;;;;;;;;;;;;;;22.31;100.00;99972.16;5008927;28;19918;-74
2023/05/27 09:11:00;;;;;;;;;;;;;;;22.20;100.00;99967.41;5009879;28;19996;-74
2023/05/27 09:13:27;;;;;;;;;;;;;;;22.26;100.00;99968.44;5007133;28;19951;-74
2023/05/27 09:16:03;;;;;;;;;;;;;;;22.07;100.00;99962.03;5003031;28;19924;-75
2023/05/27 09:18:32;;;;;;;;;;;;;;;22.11;100.00;99968.66;5009883;28;19920;-74
2023/05/27 09:20:58;;;;;;;;;;;;;;;22.19;100.00;99973.00;5004216;28;19921;-75
2023/05/27 09:23:23;;;;;;;;;;;;;;;22.26;100.00;99961.22;5013400;28;19924;-74
2023/05/27 09:25:49;;;;;;;;;;;;;;;22.22;100.00;99959.13;5004854;28;19917;-73
2023/05/27 09:28:25;;;;;;;;;;;;;;;22.19;100.00;99964.94;5008155;28;20297;-75
2023/05/27 09:30:51;;;;;;;;;;;;;;;22.09;100.00;99970.72;4989003;28;20366;-74
2023/05/27 09:33:22;;;;;;;;;;;;;;;22.11;100.00;99957.91;5007849;28;19917;-74
2023/05/27 09:35:47;;;;;;;;;;;;;;;21.99;100.00;99968.44;5008198;28;19922;-74
2023/05/27 09:38:13;;;;;;;;;;;;;;;22.08;100.00;99963.69;5012824;28;19971;-78
2023/05/27 09:40:38;;;;;;;;;;;;;;;22.10;100.00;99958.09;5006422;28;19917;-75
2023/05/27 09:43:04;;;;;;;;;;;;;;;22.10;100.00;99956.25;5013360;28;20372;-75
2023/05/27 09:45:29;;;;;;;;;;;;;;;22.15;100.00;99952.97;5009874;28;19918;-75
2023/05/27 09:47:56;;;;;;;;;;;;;;;22.25;100.00;99943.44;5010606;28;19923;-74
2023/05/27 09:50:21;;;;;;;;;;;;;;;22.25;100.00;99948.81;5008413;28;20008;-74
2023/05/27 09:52:48;;;;;;;;;;;;;;;22.16;100.00;99950.03;5011340;28;20028;-75
2023/05/27 09:55:14;;;;;;;;;;;;;;;22.27;100.00;99957.47;5004403;28;19964;-75
2023/05/27 09:57:40;;;;;;;;;;;;;;;22.35;100.00;99949.19;5010106;28;19918;-73
2023/05/27 10:00:12;;;;;;;;;;;;;;;22.34;100.00;99952.91;5008779;28;20366;-77
2023/05/27 10:02:39;;;;;;;;;;;;;;;22.39;100.00;99950.41;5014406;28;20513;-74
2023/05/27 10:05:07;;;;;;;;;;;;;;;22.40;100.00;99954.75;5009604;28;19925;-75
2023/05/27 10:07:36;;;;;;;;;;;;;;;22.40;100.00;99949.38;5003987;28;19960;-75
2023/05/27 10:10:02;;;;;;;;;;;;;;;22.39;100.00;99945.03;5008976;28;19917;-75
2023/05/27 10:12:28;;;;;;;;;;;;;;;22.50;100.00;99950.84;5008295;28;20039;-74
2023/05/27 10:14:55;;;;;;;;;;;;;;;22.49;100.00;99949.19;5004962;28;20361;-74
2023/05/27 10:17:21;;;;;;;;;;;;;;;22.55;100.00;99945.66;5011829;28;19924;-74
2023/05/27 10:19:53;;;;;;;;;;;;;;;22.63;100.00;99951.59;5006511;28;19917;-74
2023/05/27 10:22:20;;;;;;;;;;;;;;;22.64;100.00;99944.38;4988798;28;20275;-74
2023/05/27 10:24:47;;;;;;;;;;;;;;;22.57;100.00;99940.88;5009738;28;19964;-74
2023/05/27 10:27:13;;;;;;;;;;;;;;;22.55;100.00;99940.28;5003759;28;19918;-74
2023/05/27 10:29:38;;;;;;;;;;;;;;;22.54;100.00;99941.31;5011940;28;19979;-74
2023/05/27 10:32:04;;;;;;;;;;;;;;;22.63;100.00;99940.03;5007145;28;19957;-75
2023/05/27 10:34:41;;;;;;;;;;;;;;;22.73;100.00;99929.69;4990307;28;19929;-74
2023/05/27 10:37:07;;;;;;;;;;;;;;;22.82;100.00;99923.03;5007751;28;19941;-74
2023/05/27 10:39:32;;;;;;;;;;;;;;;22.96;100.00;99932.72;5008513;28;19921;-74
2023/05/27 10:41:58;;;;;;;;;;;;;;;23.02;100.00;99929.16;5004057;28;19918;-74
2023/05/27 10:44:28;;;;;;;;;;;;;;;22.97;100.00;99926.28;5014046;28;20634;-75
2023/05/27 10:47:00;;;;;;;;;;;;;;;23.02;100.00;99923.78;5008639;28;19917;-74
2023/05/27 10:49:32;;;;;;;;;;;;;;;23.02;100.00;99928.34;5010454;28;20422;-74
2023/05/27 10:52:00;;;;;;;;;;;;;;;23.07;100.00;99923.13;5008942;28;19928;-74
2023/05/27 10:54:26;;;;;;;;;;;;;;;23.01;100.00;99919.44;5007267;28;19918;-74
2023/05/27 10:56:51;;;;;;;;;;;;;;;23.03;100.00;99909.25;5009213;28;20315;-74
2023/05/27 10:59:21;;;;;;;;;;;;;;;23.07;100.00;99921.25;5014880;28;19921;-74
2023/05/27 11:01:50;;;;;;;;;;;;;;;23.08;100.00;99906.78;5014076;28;20379;-74
2023/05/27 11:04:16;;;;;;;;;;;;;;;23.11;100.00;99918.97;5014934;28;19965;-75
2023/05/27 11:06:41;;;;;;;;;;;;;;;23.05;100.00;99904.50;5007064;28;20455;-74
2023/05/27 11:09:07;;;;;;;;;;;;;;;23.07;100.00;99909.66;5017146;28;19921;-74
2023/05/27 11:11:32;;;;;;;;;;;;;;;22.96;100.00;99908.50;5007516;28;19918;-74
2023/05/27 11:13:57;;;;;;;;;;;;;;;23.04;100.00;99910.91;5009231;28;20028;-74
2023/05/27 11:16:23;;;;;;;;;;;;;;;23.12;100.00;99907.97;5007271;28;19917;-74
2023/05/27 11:18:48;;;;;;;;;;;;;;;23.20;100.00;99909.59;5013355;28;20004;-74
2023/05/27 11:21:17;;;;;;;;;;;;;;;23.27;100.00;99904.97;5005984;28;19983;-74
2023/05/27 11:23:44;;;;;;;;;;;;;;;23.36;100.00;99902.88;5005999;28;19922;-74
2023/05/27 11:26:21;;;;;;;;;;;;;;;23.47;100.00;99894.13;5008382;28;19917;-74
2023/05/27 11:28:46;;;;;;;;;;;;;;;23.60;100.00;99900.25;5012941;28;19917;-74
2023/05/27 11:31:12;;;;;;;;;;;;;;;23.66;100.00;99893.16;5009581;28;20290;-74
2023/05/27 11:33:40;;;;;;;;;;;;;;;23.75;100.00;99886.44;5007770;28;19922;-74
2023/05/27 11:36:06;;;;;;;;;;;;;;;23.80;100.00;99888.50;5014488;28;20006;-75
2023/05/27 11:38:38;;;;;;;;;;;;;;;23.83;100.00;99888.88;5008234;28;19921;-75
2023/05/27 11:41:07;;;;;;;;;;;;;;;23.84;100.00;99873.53;5008301;28;20007;-75
2023/05/27 11:43:33;;;;;;;;;;;;;;;23.93;100.00;99864.94;5009471;28;19917;-75
2023/05/27 11:46:04;;;;;;;;;;;;;;;24.02;100.00;99871.69;5011206;28;19967;-74
2023/05/27 11:48:30;;;;;;;;;;;;;;;24.07;100.00;99866.47;5004648;28;20004;-75
2023/05/27 11:50:55;;;;;;;;;;;;;;;24.20;100.00;99867.41;5014842;28;20545;-74
2023/05/27 11:53:21;;;;;;;;;;;;;;;24.22;100.00;99865.28;5005642;28;19917;-74
2023/05/27 11:55:46;;;;;;;;;;;;;;;24.20;100.00;99856.63;5012741;28;19917;-75
2023/05/27 11:58:11;;;;;;;;;;;;;;;24.37;100.00;99852.28;5009804;28;19975;-75
2023/05/27 12:00:37;;;;;;;;;;;;;;;24.48;100.00;99848.81;5010808;28;20021;-76
2023/05/27 12:03:02;;;;;;;;;;;;;;;24.57;100.00;99846.63;5011063;28;20374;-75
2023/05/27 12:05:27;;;;;;;;;;;;;;;24.71;100.00;99832.75;5010048;28;19932;-75
2023/05/27 12:07:52;;;;;;;;;;;;;;;24.88;100.00;99839.19;5005654;28;20250;-75
2023/05/27 12:10:18;;;;;;;;;;;;;;;25.01;100.00;99831.97;5014185;28;19916;-75
2023/05/27 12:12:44;;;;;;;;;;;;;;;25.19;100.00;99830.03;5007149;28;19918;-75
2023/05/27 12:15:09;;;;;;;;;;;;;;;25.39;100.00;99823.50;5012127;28;20392;-75
2023/05/27 12:17:35;;;;;;;;;;;;;;;25.49;100.00;99819.16;5012063;28;19926;-75
2023/05/27 12:20:00;;;;;;;;;;;;;;;25.56;100.00;99817.22;5007097;28;19917;-73
2023/05/27 12:22:25;;;;;;;;;;;;;;;25.78;100.00;99819.34;5009517;28;19917;-76
2023/05/27 12:24:51;;;;;;;;;;;;;;;25.76;100.00;99816.03;5011874;28;20024;-74
2023/05/27 12:27:17;;;;;;;;;;;;;;;25.65;100.00;99813.09;5006069;28;19925;-74
2023/05/27 12:29:43;;;;;;;;;;;;;;;25.73;100.00;99808.41;5011126;28;19917;-76
2023/05/27 12:32:08;;;;;;;;;;;;;;;25.49;100.00;99802.97;5008236;28;20330;-76
2023/05/27 12:34:33;;;;;;;;;;;;;;;25.59;100.00;99800.53;5009175;28;19937;-76
2023/05/27 12:36:59;;;;;;;;;;;;;;;25.71;100.00;99791.59;5010089;28;20012;-74
2023/05/27 12:39:24;;;;;;;;;;;;;;;26.05;100.00;99804.25;5010026;28;19925;-75